New Orleans, Louisiana
Current Conditions -  °F | °C
As of 2:55 AM on Friday 28 Nov 2014 (Local Time) from KVSH Reporting Station
Clear Clear  
Wind Chill:   Ceiling: Unl
Heat Index:   Visibility: 10mi
Dew Point: -1°   Wind: 6mph
Humidity: 53%   Direction: 20°NNE
Pressure: 30.42"   Gusts: NA
Location:  29.95°N, 90.08°W
Report Text: KVSH 280855Z AUTO 02005KT 10SM CLR 08/M01 A3042 RMK AO1 57007
Loading
Personal Weather Stations






























Interactive Weather Map New forecast layout! Learn more

10-Day Weather Forecast

Advertisements
Track Severe Weather on mobile